createdAt,value
2022-09-25T00:02:53.247Z,7.50
2022-09-25T00:06:04.573Z,6.97
2022-09-25T00:09:10.190Z,7.37
2022-09-25T00:12:13.732Z,7.07
2022-09-25T00:15:16.835Z,7.43
2022-09-25T00:18:41.469Z,8.43
2022-09-25T00:21:45.352Z,7.60
2022-09-25T00:24:48.642Z,7.00
2022-09-25T00:27:54.632Z,7.00
2022-09-25T00:30:57.875Z,10.00
2022-09-25T00:34:02.783Z,7.53
2022-09-25T00:37:07.961Z,7.23
2022-09-25T00:40:12.109Z,7.83
2022-09-25T00:43:16.165Z,7.23
2022-09-25T00:46:23.834Z,7.03
2022-09-25T00:49:27.771Z,7.73
2022-09-25T00:52:32.928Z,7.53
2022-09-25T00:55:38.754Z,6.77
2022-09-25T00:58:42.300Z,6.50
2022-09-25T01:01:46.068Z,7.20
2022-09-25T01:04:50.009Z,6.70
2022-09-25T01:07:57.274Z,6.67
2022-09-25T01:11:00.495Z,6.93
2022-09-25T01:14:07.029Z,6.37
2022-09-25T01:17:21.296Z,6.97
2022-09-25T01:20:41.692Z,6.93
2022-09-25T01:24:26.639Z,7.00
2022-09-25T01:27:52.619Z,8.07
2022-09-25T01:31:02.939Z,6.93
2022-09-25T01:34:15.025Z,6.87
2022-09-25T01:37:23.531Z,6.33
2022-09-25T01:40:33.575Z,6.80
2022-09-25T01:43:39.748Z,6.57
2022-09-25T01:46:47.726Z,6.13
2022-09-25T01:49:54.281Z,6.97
2022-09-25T01:53:03.303Z,6.47
2022-09-25T01:56:11.917Z,6.50
2022-09-25T01:59:20.058Z,6.80
2022-09-25T02:02:28.277Z,7.10
2022-09-25T02:05:35.009Z,6.87
2022-09-25T02:08:44.129Z,7.00
2022-09-25T02:11:52.334Z,6.80
2022-09-25T02:14:57.923Z,7.20
2022-09-25T02:18:22.342Z,8.40
2022-09-25T02:21:35.026Z,7.77
2022-09-25T02:24:47.234Z,8.57
2022-09-25T02:27:50.378Z,8.63
2022-09-25T02:30:55.870Z,8.83
2022-09-25T02:34:00.434Z,9.47
2022-09-25T02:37:03.531Z,8.40
2022-09-25T02:40:07.594Z,7.53
2022-09-25T02:43:22.867Z,7.70
2022-09-25T02:46:34.666Z,7.33
2022-09-25T02:49:48.953Z,7.33
2022-09-25T02:53:05.583Z,7.17
2022-09-25T02:56:14.481Z,7.00
2022-09-25T02:59:22.552Z,7.50
2022-09-25T03:02:28.131Z,6.87
2022-09-25T03:05:33.109Z,6.70
2022-09-25T03:08:39.523Z,8.00
2022-09-25T03:11:43.832Z,6.50
2022-09-25T03:14:47.010Z,6.70
2022-09-25T03:17:51.208Z,7.57
2022-09-25T03:20:55.909Z,7.83
2022-09-25T03:23:58.983Z,6.90
2022-09-25T03:27:02.064Z,7.77
2022-09-25T03:30:06.203Z,7.20
2022-09-25T03:33:10.483Z,6.93
2022-09-25T03:36:18.485Z,7.07
2022-09-25T03:39:21.782Z,8.07
2022-09-25T03:42:28.177Z,7.73
2022-09-25T03:45:31.254Z,7.27
2022-09-25T03:48:34.390Z,7.30
2022-09-25T03:51:39.108Z,8.30
2022-09-25T03:54:42.546Z,8.10
2022-09-25T03:57:46.117Z,7.13
2022-09-25T04:00:49.223Z,6.93
2022-09-25T04:03:52.828Z,7.33
2022-09-25T04:06:57.310Z,7.33
2022-09-25T04:10:00.423Z,7.00
2022-09-25T04:13:04.032Z,8.13
2022-09-25T04:16:08.248Z,7.20
2022-09-25T04:19:11.786Z,7.00
2022-09-25T04:22:16.381Z,8.00
2022-09-25T04:25:24.642Z,6.73
2022-09-25T04:28:29.944Z,9.00
2022-09-25T04:31:33.557Z,7.67
2022-09-25T04:34:35.839Z,8.63
2022-09-25T04:37:40.337Z,9.53
2022-09-25T04:40:43.656Z,8.20
2022-09-25T04:43:47.013Z,9.20
2022-09-25T04:46:50.108Z,7.93
2022-09-25T04:49:53.423Z,8.97
2022-09-25T04:52:59.115Z,8.57
2022-09-25T04:56:03.470Z,8.37
2022-09-25T04:59:06.586Z,8.43
2022-09-25T05:02:09.946Z,9.03
2022-09-25T05:05:13.419Z,9.00
2022-09-25T05:08:18.218Z,8.90
2022-09-25T05:11:21.423Z,8.30
2022-09-25T05:14:24.652Z,8.70
2022-09-25T05:17:27.736Z,10.43
2022-09-25T05:20:31.053Z,7.93
2022-09-25T05:23:35.601Z,8.63
2022-09-25T05:26:38.883Z,9.47
2022-09-25T05:29:41.975Z,9.50
2022-09-25T05:32:49.939Z,8.90
2022-09-25T05:35:52.996Z,10.20
2022-09-25T05:38:57.741Z,10.33
2022-09-25T05:42:02.499Z,9.60
2022-09-25T05:45:07.664Z,9.93
2022-09-25T05:48:10.938Z,10.47
2022-09-25T05:51:14.027Z,9.67
2022-09-25T05:54:18.514Z,9.07
2022-09-25T05:57:22.536Z,8.80
2022-09-25T06:00:26.112Z,9.27
2022-09-25T06:03:29.754Z,9.70
2022-09-25T06:06:32.937Z,9.23
2022-09-25T06:09:37.646Z,9.17
2022-09-25T06:12:40.746Z,9.63
2022-09-25T06:15:43.881Z,9.37
2022-09-25T06:18:48.148Z,10.50
2022-09-25T06:21:51.225Z,8.97
2022-09-25T06:24:55.733Z,10.10
2022-09-25T06:28:00.357Z,13.20
2022-09-25T06:31:04.871Z,10.07
2022-09-25T06:34:09.794Z,10.17
2022-09-25T06:37:12.888Z,9.17
2022-09-25T06:40:17.641Z,10.20
2022-09-25T06:43:20.775Z,9.57
2022-09-25T06:46:24.039Z,10.30
2022-09-25T06:49:27.169Z,11.77
2022-09-25T06:52:30.298Z,13.23
2022-09-25T06:55:35.078Z,11.10
2022-09-25T06:58:39.173Z,10.57
2022-09-25T07:01:42.355Z,12.17
2022-09-25T07:04:44.515Z,11.33
2022-09-25T07:07:48.674Z,10.93
2022-09-25T07:10:54.593Z,11.17
2022-09-25T07:13:57.725Z,10.87
2022-09-25T07:17:00.785Z,11.67
2022-09-25T07:20:04.155Z,11.13
2022-09-25T07:23:07.238Z,11.70
2022-09-25T07:26:13.564Z,12.07
2022-09-25T07:29:17.435Z,11.20
2022-09-25T07:32:20.736Z,12.77
2022-09-25T07:35:23.952Z,12.93
2022-09-25T07:38:27.023Z,12.80
2022-09-25T07:41:31.490Z,12.50
2022-09-25T07:44:38.447Z,13.10
2022-09-25T07:47:41.783Z,12.73
2022-09-25T07:50:45.446Z,13.00
2022-09-25T07:53:48.632Z,12.00
2022-09-25T07:56:53.171Z,10.70
2022-09-25T07:59:56.241Z,10.83
2022-09-25T08:03:00.270Z,10.17
2022-09-25T08:06:05.565Z,9.07
2022-09-25T08:09:10.825Z,9.70
2022-09-25T08:12:15.505Z,10.67
2022-09-25T08:15:19.153Z,10.73
2022-09-25T08:18:22.697Z,10.63
2022-09-25T08:21:25.906Z,9.40
2022-09-25T08:24:28.994Z,10.67
2022-09-25T08:27:33.735Z,10.70
2022-09-25T08:30:38.285Z,12.37
2022-09-25T08:33:45.444Z,11.70
2022-09-25T08:36:49.877Z,10.70
2022-09-25T08:39:53.977Z,10.80
2022-09-25T08:42:59.075Z,8.67
2022-09-25T08:46:22.001Z,9.63
2022-09-25T08:49:29.758Z,9.10
2022-09-25T08:52:33.495Z,9.37
2022-09-25T08:55:57.700Z,9.33
2022-09-25T08:59:07.689Z,10.80
2022-09-25T09:02:14.988Z,10.90
2022-09-25T09:05:23.997Z,9.03
2022-09-25T09:08:31.021Z,10.70
2022-09-25T09:11:39.387Z,9.70
2022-09-25T09:14:47.595Z,11.10
2022-09-25T09:17:50.727Z,10.20
2022-09-25T09:20:56.436Z,10.03
2022-09-25T09:24:07.760Z,10.77
2022-09-25T09:27:39.981Z,12.43
2022-09-25T09:30:50.738Z,14.93
2022-09-25T09:34:00.941Z,10.20
2022-09-25T09:37:15.967Z,10.77
2022-09-25T09:40:28.123Z,10.40
2022-09-25T09:43:56.462Z,11.07
2022-09-25T09:47:09.118Z,10.67
2022-09-25T09:50:25.327Z,9.53
2022-09-25T09:53:34.198Z,11.70
2022-09-25T09:56:38.353Z,10.63
2022-09-25T09:59:47.246Z,11.07
2022-09-25T10:02:57.284Z,12.17
2022-09-25T10:06:02.783Z,11.00
2022-09-25T10:09:06.979Z,11.60
2022-09-25T10:12:16.634Z,10.60
2022-09-25T10:15:29.172Z,12.70
2022-09-25T10:18:40.982Z,12.10
2022-09-25T10:21:47.481Z,9.37
2022-09-25T10:24:53.951Z,9.77
2022-09-25T10:27:57.056Z,9.23
2022-09-25T10:31:01.966Z,10.03
2022-09-25T10:34:08.128Z,9.63
2022-09-25T10:37:21.205Z,9.10
2022-09-25T10:40:33.419Z,10.70
2022-09-25T10:43:36.858Z,8.23
2022-09-25T10:46:57.122Z,8.67
2022-09-25T10:50:14.224Z,9.40
2022-09-25T10:53:30.727Z,9.23
2022-09-25T10:56:39.049Z,9.93
2022-09-25T10:59:48.599Z,10.80
2022-09-25T11:02:54.771Z,11.17
2022-09-25T11:06:03.891Z,10.57
2022-09-25T11:09:13.701Z,8.17
2022-09-25T11:12:23.588Z,8.07
2022-09-25T11:15:28.585Z,7.63
2022-09-25T11:18:41.779Z,8.33
2022-09-25T11:22:00.162Z,7.83
2022-09-25T11:25:13.529Z,8.77
2022-09-25T11:28:22.125Z,8.40
2022-09-25T11:31:31.234Z,10.80
2022-09-25T11:34:53.062Z,9.17
2022-09-25T11:38:09.745Z,8.57
2022-09-25T11:41:23.113Z,8.30
2022-09-25T11:44:32.918Z,7.33
2022-09-25T11:47:44.663Z,7.20
2022-09-25T11:50:57.395Z,6.83
2022-09-25T11:54:37.603Z,7.20
2022-09-25T11:57:53.298Z,6.93
2022-09-25T12:01:03.704Z,7.47
2022-09-25T12:04:47.618Z,7.60
2022-09-25T12:08:15.565Z,8.93
2022-09-25T12:11:28.641Z,9.30
2022-09-25T12:14:40.969Z,7.70
2022-09-25T12:17:57.421Z,8.17
2022-09-25T12:21:06.268Z,8.30
2022-09-25T12:24:19.409Z,8.77
2022-09-25T12:27:37.720Z,7.90
2022-09-25T12:30:50.452Z,8.80
2022-09-25T12:33:59.095Z,8.17
2022-09-25T12:37:13.286Z,8.90
2022-09-25T12:40:24.223Z,8.77
2022-09-25T12:43:36.123Z,16.00
2022-09-25T12:46:44.660Z,9.20
2022-09-25T12:49:51.890Z,18.07
2022-09-25T12:52:58.572Z,11.77
2022-09-25T12:56:09.713Z,15.87
2022-09-25T12:59:18.583Z,26.63
2022-09-25T13:02:29.034Z,11.27
2022-09-25T13:05:36.255Z,22.20
2022-09-25T13:08:47.964Z,11.83
2022-09-25T13:11:57.400Z,10.60
2022-09-25T13:15:06.899Z,9.60
2022-09-25T13:18:22.646Z,15.57
2022-09-25T13:21:30.640Z,9.87
2022-09-25T13:24:40.749Z,10.90
2022-09-25T13:27:46.752Z,11.80
2022-09-25T13:31:10.126Z,9.10
2022-09-25T13:34:15.816Z,11.00
2022-09-25T13:37:19.041Z,7.40
2022-09-25T13:40:42.789Z,8.33
2022-09-25T13:43:49.552Z,6.63
2022-09-25T13:47:28.944Z,6.83
2022-09-25T13:50:37.978Z,6.63
2022-09-25T13:53:56.584Z,6.63
2022-09-25T13:56:59.653Z,6.90
2022-09-25T14:00:06.148Z,7.73
2022-09-25T14:03:31.866Z,6.63
2022-09-25T14:06:39.221Z,6.37
2022-09-25T14:09:47.780Z,6.03
2022-09-25T14:12:51.980Z,5.67
2022-09-25T14:15:58.465Z,7.17
2022-09-25T14:19:05.167Z,6.97
2022-09-25T14:22:19.077Z,6.80
2022-09-25T14:25:28.488Z,4.73
2022-09-25T14:28:36.206Z,4.83
2022-09-25T14:31:48.351Z,4.40
2022-09-25T14:35:18.725Z,5.00
2022-09-25T14:38:40.597Z,4.43
2022-09-25T14:42:03.020Z,3.67
2022-09-25T14:45:41.697Z,3.70
2022-09-25T14:48:48.717Z,4.60
2022-09-25T14:51:55.918Z,3.60
2022-09-25T14:55:00.875Z,2.90
2022-09-25T14:58:05.179Z,3.27
2022-09-25T15:01:17.959Z,3.20
2022-09-25T15:04:28.470Z,3.27
2022-09-25T15:07:33.412Z,3.80
2022-09-25T15:10:38.430Z,2.70
2022-09-25T15:13:42.404Z,2.90
2022-09-25T15:17:03.055Z,3.00
2022-09-25T15:20:08.951Z,2.77
2022-09-25T15:23:19.544Z,2.50
2022-09-25T15:26:23.334Z,3.27
2022-09-25T15:29:26.910Z,3.80
2022-09-25T15:32:38.364Z,4.53
2022-09-25T15:35:41.506Z,4.40
2022-09-25T15:38:52.963Z,4.00
2022-09-25T15:41:56.159Z,4.67
2022-09-25T15:45:03.728Z,5.53
2022-09-25T15:48:24.963Z,4.53
2022-09-25T15:51:32.206Z,5.27
2022-09-25T15:54:38.565Z,5.10
2022-09-25T15:57:42.698Z,4.40
2022-09-25T16:01:15.675Z,4.00
2022-09-25T16:04:39.245Z,5.50
2022-09-25T16:07:42.437Z,5.23
2022-09-25T16:10:50.071Z,6.33
2022-09-25T16:14:13.122Z,5.83
2022-09-25T16:17:26.019Z,6.00
2022-09-25T16:20:32.011Z,5.70
2022-09-25T16:23:35.128Z,6.67
2022-09-25T16:26:42.065Z,7.23
2022-09-25T16:29:46.146Z,6.40
2022-09-25T16:32:50.940Z,6.80
2022-09-25T16:36:16.135Z,6.17
2022-09-25T16:39:25.061Z,6.50
2022-09-25T16:42:39.467Z,7.37
2022-09-25T16:45:59.054Z,6.90
2022-09-25T16:49:04.883Z,9.40
2022-09-25T16:52:08.993Z,7.77
2022-09-25T16:55:22.737Z,9.40
2022-09-25T16:58:27.367Z,14.17
2022-09-25T17:01:30.524Z,9.67
2022-09-25T17:04:35.983Z,9.10
2022-09-25T17:07:39.417Z,9.43
2022-09-25T17:10:42.710Z,8.90
2022-09-25T17:36:22.494Z,9.37
2022-09-25T17:40:25.730Z,10.83
2022-09-25T18:14:23.405Z,8.83
2022-09-25T18:34:06.528Z,11.27
2022-09-25T18:37:10.300Z,11.97
2022-09-25T18:40:16.286Z,10.83
2022-09-25T18:43:21.187Z,10.00
2022-09-25T18:46:24.487Z,10.07
2022-09-25T18:49:28.826Z,10.33
2022-09-25T18:52:32.556Z,8.60
2022-09-25T18:55:35.682Z,10.33
2022-09-25T18:58:40.201Z,9.20
2022-09-25T19:01:44.197Z,10.90
2022-09-25T19:04:47.774Z,11.13
2022-09-25T19:07:52.284Z,26.17
2022-09-25T19:10:55.467Z,20.33
2022-09-25T19:14:04.756Z,14.00
2022-09-25T19:17:09.158Z,11.70
2022-09-25T19:20:12.262Z,11.00
2022-09-25T19:23:15.726Z,10.67
2022-09-25T19:26:22.396Z,9.80
2022-09-25T19:29:27.357Z,10.50
2022-09-25T19:32:30.576Z,10.73
2022-09-25T19:35:33.971Z,11.53
2022-09-25T19:38:40.538Z,10.47
2022-09-25T19:41:44.791Z,9.40
2022-09-25T19:44:50.382Z,10.93
2022-09-25T19:47:53.574Z,11.40
2022-09-25T19:50:57.093Z,12.67
2022-09-25T19:54:00.488Z,11.50
2022-09-25T19:57:03.627Z,13.23
2022-09-25T20:00:10.415Z,11.33
2022-09-25T20:03:13.666Z,13.50
2022-09-25T20:06:17.600Z,12.20
2022-09-25T20:09:20.716Z,12.67
2022-09-25T20:12:23.916Z,11.97
2022-09-25T20:15:29.262Z,14.13
2022-09-25T20:18:32.383Z,13.33
2022-09-25T20:21:37.696Z,12.60
2022-09-25T20:24:40.808Z,13.23
2022-09-25T20:27:43.949Z,13.73
2022-09-25T20:30:48.609Z,12.47
2022-09-25T20:33:52.040Z,12.97
2022-09-25T20:36:55.631Z,12.97
2022-09-25T20:39:58.885Z,12.47
2022-09-25T20:43:01.949Z,11.93
2022-09-25T20:46:08.347Z,13.20
2022-09-25T20:49:13.240Z,13.17
2022-09-25T20:52:16.568Z,12.40
2022-09-25T20:55:20.169Z,12.57
2022-09-25T20:58:23.367Z,14.57
2022-09-25T21:01:29.843Z,13.90
2022-09-25T21:04:33.438Z,17.60
2022-09-25T21:07:36.485Z,19.57
2022-09-25T21:10:40.463Z,16.40
2022-09-25T21:13:43.732Z,14.83
2022-09-25T21:16:49.270Z,12.77
2022-09-25T21:19:53.572Z,15.87
2022-09-25T21:22:56.666Z,15.07
2022-09-25T21:26:04.214Z,13.70
2022-09-25T21:29:08.158Z,13.67
2022-09-25T21:32:12.701Z,12.50
2022-09-25T21:35:15.857Z,12.30
2022-09-25T21:38:18.981Z,12.13
2022-09-25T21:41:24.279Z,11.33
2022-09-25T21:44:27.349Z,10.57
2022-09-25T21:47:31.801Z,12.83
2022-09-25T21:50:34.880Z,12.50
2022-09-25T21:53:38.268Z,12.70
2022-09-25T21:56:41.545Z,12.43
2022-09-25T21:59:44.645Z,11.37
2022-09-25T22:02:50.336Z,11.50
2022-09-25T22:05:59.739Z,13.00
2022-09-25T22:09:04.947Z,11.73
2022-09-25T22:12:08.505Z,11.77
2022-09-25T22:15:12.909Z,11.57
2022-09-25T22:18:17.484Z,11.57
2022-09-25T22:21:22.765Z,11.50
2022-09-25T22:24:26.404Z,12.97
2022-09-25T22:27:29.478Z,10.97
2022-09-25T22:30:32.865Z,11.20
2022-09-25T22:33:37.653Z,12.60
2022-09-25T22:36:40.879Z,12.60
2022-09-25T22:39:44.739Z,11.63
2022-09-25T22:42:47.812Z,12.23
2022-09-25T22:45:51.439Z,14.77
2022-09-25T22:48:55.961Z,13.27
2022-09-25T22:51:59.138Z,13.43
2022-09-25T22:55:02.249Z,12.63
2022-09-25T22:58:05.315Z,12.20
2022-09-25T23:01:12.123Z,13.77
2022-09-25T23:04:19.103Z,14.47
2022-09-25T23:07:22.355Z,13.80
2022-09-25T23:10:25.485Z,15.20
2022-09-25T23:13:28.992Z,15.67
2022-09-25T23:16:33.499Z,14.63
2022-09-25T23:19:38.001Z,14.07
2022-09-25T23:22:41.146Z,13.50
2022-09-25T23:25:46.558Z,13.53
2022-09-25T23:28:49.619Z,14.50
2022-09-25T23:31:53.200Z,17.00
2022-09-25T23:34:57.668Z,18.00
2022-09-25T23:38:00.816Z,16.43
2022-09-25T23:41:13.444Z,20.00
2022-09-25T23:44:16.537Z,21.93
2022-09-25T23:47:19.752Z,20.77
2022-09-25T23:50:24.225Z,23.40
2022-09-25T23:53:27.321Z,20.33
2022-09-25T23:56:33.057Z,22.77
2022-09-25T23:59:36.181Z,20.87
